sensor_id;sensor_type;location;lat;lon;timestamp;P1;durP1;ratioP1;P2;durP2;ratioP2
41629;SDS011;27322;49.488;8.480;2023-06-10T00:01:28;6.70;;;4.22;;
41629;SDS011;27322;49.488;8.480;2023-06-10T00:03:56;4.55;;;3.70;;
41629;SDS011;27322;49.488;8.480;2023-06-10T00:06:22;5.35;;;3.70;;
41629;SDS011;27322;49.488;8.480;2023-06-10T00:08:49;6.38;;;3.72;;
41629;SDS011;27322;49.488;8.480;2023-06-10T00:11:15;5.35;;;3.95;;
41629;SDS011;27322;49.488;8.480;2023-06-10T00:13:41;5.25;;;3.60;;
41629;SDS011;27322;49.488;8.480;2023-06-10T00:16:06;6.20;;;3.20;;
41629;SDS011;27322;49.488;8.480;2023-06-10T00:18:32;5.97;;;3.67;;
41629;SDS011;27322;49.488;8.480;2023-06-10T00:20:57;5.47;;;4.00;;
41629;SDS011;27322;49.488;8.480;2023-06-10T00:23:29;5.45;;;4.00;;
41629;SDS011;27322;49.488;8.480;2023-06-10T00:26:02;7.90;;;4.67;;
41629;SDS011;27322;49.488;8.480;2023-06-10T00:28:28;5.95;;;4.20;;
41629;SDS011;27322;49.488;8.480;2023-06-10T00:30:53;7.13;;;4.63;;
41629;SDS011;27322;49.488;8.480;2023-06-10T00:33:19;7.93;;;4.80;;
41629;SDS011;27322;49.488;8.480;2023-06-10T00:35:45;6.05;;;4.13;;
41629;SDS011;27322;49.488;8.480;2023-06-10T00:38:10;6.00;;;4.15;;
41629;SDS011;27322;49.488;8.480;2023-06-10T00:40:40;6.15;;;4.25;;
41629;SDS011;27322;49.488;8.480;2023-06-10T00:43:06;5.50;;;4.10;;
41629;SDS011;27322;49.488;8.480;2023-06-10T00:45:32;5.97;;;4.32;;
41629;SDS011;27322;49.488;8.480;2023-06-10T00:47:59;6.88;;;4.50;;
41629;SDS011;27322;49.488;8.480;2023-06-10T00:50:25;6.38;;;4.35;;
41629;SDS011;27322;49.488;8.480;2023-06-10T00:52:51;5.38;;;4.30;;
41629;SDS011;27322;49.488;8.480;2023-06-10T00:55:19;6.10;;;4.18;;
41629;SDS011;27322;49.488;8.480;2023-06-10T00:57:45;6.97;;;4.93;;
41629;SDS011;27322;49.488;8.480;2023-06-10T01:00:13;6.82;;;5.10;;
41629;SDS011;27322;49.488;8.480;2023-06-10T01:02:40;6.82;;;5.07;;
41629;SDS011;27322;49.488;8.480;2023-06-10T01:05:06;6.57;;;4.97;;
41629;SDS011;27322;49.488;8.480;2023-06-10T01:07:36;7.22;;;4.93;;
41629;SDS011;27322;49.488;8.480;2023-06-10T01:15:01;7.97;;;5.10;;
41629;SDS011;27322;49.488;8.480;2023-06-10T01:17:29;6.10;;;4.60;;
41629;SDS011;27322;49.488;8.480;2023-06-10T01:19:58;5.97;;;4.57;;
41629;SDS011;27322;49.488;8.480;2023-06-10T01:22:24;6.13;;;4.65;;
41629;SDS011;27322;49.488;8.480;2023-06-10T01:24:53;6.55;;;4.80;;
41629;SDS011;27322;49.488;8.480;2023-06-10T01:27:26;6.88;;;4.72;;
41629;SDS011;27322;49.488;8.480;2023-06-10T01:30:02;5.78;;;4.38;;
41629;SDS011;27322;49.488;8.480;2023-06-10T01:32:37;7.07;;;4.82;;
41629;SDS011;27322;49.488;8.480;2023-06-10T01:35:08;7.68;;;4.70;;
41629;SDS011;27322;49.488;8.480;2023-06-10T01:37:34;8.35;;;5.22;;
41629;SDS011;27322;49.488;8.480;2023-06-10T01:40:01;8.02;;;5.10;;
41629;SDS011;27322;49.488;8.480;2023-06-10T01:42:31;8.43;;;5.30;;
41629;SDS011;27322;49.488;8.480;2023-06-10T01:44:57;7.80;;;4.95;;
41629;SDS011;27322;49.488;8.480;2023-06-10T01:47:23;8.18;;;5.35;;
41629;SDS011;27322;49.488;8.480;2023-06-10T01:49:49;6.85;;;4.88;;
41629;SDS011;27322;49.488;8.480;2023-06-10T01:52:14;8.30;;;5.45;;
41629;SDS011;27322;49.488;8.480;2023-06-10T01:54:40;8.95;;;5.38;;
41629;SDS011;27322;49.488;8.480;2023-06-10T01:57:06;6.68;;;5.18;;
41629;SDS011;27322;49.488;8.480;2023-06-10T01:59:31;7.63;;;5.30;;
41629;SDS011;27322;49.488;8.480;2023-06-10T02:01:57;8.35;;;5.30;;
41629;SDS011;27322;49.488;8.480;2023-06-10T02:04:23;6.32;;;4.90;;
41629;SDS011;27322;49.488;8.480;2023-06-10T02:06:48;6.65;;;4.97;;
41629;SDS011;27322;49.488;8.480;2023-06-10T02:09:15;6.85;;;4.90;;
41629;SDS011;27322;49.488;8.480;2023-06-10T02:11:41;7.93;;;5.03;;
41629;SDS011;27322;49.488;8.480;2023-06-10T02:14:06;6.38;;;4.60;;
41629;SDS011;27322;49.488;8.480;2023-06-10T02:16:32;6.20;;;4.78;;
41629;SDS011;27322;49.488;8.480;2023-06-10T02:18:58;6.15;;;4.60;;
41629;SDS011;27322;49.488;8.480;2023-06-10T02:21:23;6.88;;;4.72;;
41629;SDS011;27322;49.488;8.480;2023-06-10T02:23:49;6.20;;;4.82;;
41629;SDS011;27322;49.488;8.480;2023-06-10T02:26:14;5.68;;;4.40;;
41629;SDS011;27322;49.488;8.480;2023-06-10T02:28:43;6.82;;;4.60;;
41629;SDS011;27322;49.488;8.480;2023-06-10T02:31:09;6.25;;;4.53;;
41629;SDS011;27322;49.488;8.480;2023-06-10T02:33:34;6.35;;;4.43;;
41629;SDS011;27322;49.488;8.480;2023-06-10T02:36:00;6.68;;;4.20;;
41629;SDS011;27322;49.488;8.480;2023-06-10T02:38:25;5.80;;;4.25;;
41629;SDS011;27322;49.488;8.480;2023-06-10T02:40:51;6.55;;;4.70;;
41629;SDS011;27322;49.488;8.480;2023-06-10T02:43:16;6.13;;;4.60;;
41629;SDS011;27322;49.488;8.480;2023-06-10T02:45:42;8.30;;;4.72;;
41629;SDS011;27322;49.488;8.480;2023-06-10T02:48:08;6.32;;;4.57;;
41629;SDS011;27322;49.488;8.480;2023-06-10T02:50:33;8.18;;;4.70;;
41629;SDS011;27322;49.488;8.480;2023-06-10T02:52:59;6.57;;;4.68;;
41629;SDS011;27322;49.488;8.480;2023-06-10T02:55:24;5.93;;;4.53;;
41629;SDS011;27322;49.488;8.480;2023-06-10T02:57:51;7.88;;;4.53;;
41629;SDS011;27322;49.488;8.480;2023-06-10T03:00:19;6.32;;;4.88;;
41629;SDS011;27322;49.488;8.480;2023-06-10T03:02:45;7.65;;;5.25;;
41629;SDS011;27322;49.488;8.480;2023-06-10T03:05:11;7.95;;;5.20;;
41629;SDS011;27322;49.488;8.480;2023-06-10T03:07:38;7.00;;;5.57;;
41629;SDS011;27322;49.488;8.480;2023-06-10T03:10:04;9.43;;;5.80;;
41629;SDS011;27322;49.488;8.480;2023-06-10T03:12:31;7.07;;;5.25;;
41629;SDS011;27322;49.488;8.480;2023-06-10T03:14:57;7.70;;;5.82;;
41629;SDS011;27322;49.488;8.480;2023-06-10T03:17:23;8.68;;;5.50;;
41629;SDS011;27322;49.488;8.480;2023-06-10T03:19:48;8.52;;;5.50;;
41629;SDS011;27322;49.488;8.480;2023-06-10T03:22:14;6.90;;;5.50;;
41629;SDS011;27322;49.488;8.480;2023-06-10T03:24:41;8.13;;;5.65;;
41629;SDS011;27322;49.488;8.480;2023-06-10T03:27:08;11.30;;;5.82;;
41629;SDS011;27322;49.488;8.480;2023-06-10T03:29:36;8.48;;;5.88;;
41629;SDS011;27322;49.488;8.480;2023-06-10T03:32:02;9.70;;;6.32;;
41629;SDS011;27322;49.488;8.480;2023-06-10T03:34:28;8.98;;;6.28;;
41629;SDS011;27322;49.488;8.480;2023-06-10T03:36:54;8.50;;;6.80;;
41629;SDS011;27322;49.488;8.480;2023-06-10T03:39:20;9.65;;;6.30;;
41629;SDS011;27322;49.488;8.480;2023-06-10T03:41:46;8.48;;;6.65;;
41629;SDS011;27322;49.488;8.480;2023-06-10T03:44:12;7.38;;;6.03;;
41629;SDS011;27322;49.488;8.480;2023-06-10T03:46:37;8.48;;;6.88;;
41629;SDS011;27322;49.488;8.480;2023-06-10T03:49:03;8.10;;;6.22;;
41629;SDS011;27322;49.488;8.480;2023-06-10T03:51:29;9.02;;;7.07;;
41629;SDS011;27322;49.488;8.480;2023-06-10T03:53:55;8.73;;;6.97;;
41629;SDS011;27322;49.488;8.480;2023-06-10T03:56:20;9.52;;;7.22;;
41629;SDS011;27322;49.488;8.480;2023-06-10T03:58:46;12.25;;;7.63;;
41629;SDS011;27322;49.488;8.480;2023-06-10T04:01:11;11.57;;;7.00;;
41629;SDS011;27322;49.488;8.480;2023-06-10T04:03:40;9.63;;;6.85;;
41629;SDS011;27322;49.488;8.480;2023-06-10T04:06:06;9.60;;;6.97;;
41629;SDS011;27322;49.488;8.480;2023-06-10T04:08:32;10.35;;;6.85;;
41629;SDS011;27322;49.488;8.480;2023-06-10T04:10:58;9.85;;;7.22;;
41629;SDS011;27322;49.488;8.480;2023-06-10T04:13:24;9.48;;;6.70;;
41629;SDS011;27322;49.488;8.480;2023-06-10T04:15:50;11.60;;;7.50;;
41629;SDS011;27322;49.488;8.480;2023-06-10T04:18:16;10.63;;;6.97;;
41629;SDS011;27322;49.488;8.480;2023-06-10T04:20:41;11.23;;;7.70;;
41629;SDS011;27322;49.488;8.480;2023-06-10T04:23:07;9.93;;;7.25;;
41629;SDS011;27322;49.488;8.480;2023-06-10T04:25:33;10.00;;;7.38;;
41629;SDS011;27322;49.488;8.480;2023-06-10T04:27:59;13.77;;;7.30;;
41629;SDS011;27322;49.488;8.480;2023-06-10T04:30:25;8.70;;;6.75;;
41629;SDS011;27322;49.488;8.480;2023-06-10T04:32:50;9.00;;;6.97;;
41629;SDS011;27322;49.488;8.480;2023-06-10T04:35:17;7.93;;;6.47;;
41629;SDS011;27322;49.488;8.480;2023-06-10T04:37:42;8.70;;;6.35;;
41629;SDS011;27322;49.488;8.480;2023-06-10T04:40:08;8.45;;;6.85;;
41629;SDS011;27322;49.488;8.480;2023-06-10T04:42:34;8.90;;;6.90;;
41629;SDS011;27322;49.488;8.480;2023-06-10T04:45:00;8.25;;;6.30;;
41629;SDS011;27322;49.488;8.480;2023-06-10T04:47:27;10.48;;;6.65;;
41629;SDS011;27322;49.488;8.480;2023-06-10T04:49:53;9.15;;;6.82;;
41629;SDS011;27322;49.488;8.480;2023-06-10T04:52:18;10.65;;;6.30;;
41629;SDS011;27322;49.488;8.480;2023-06-10T04:54:44;8.23;;;6.50;;
41629;SDS011;27322;49.488;8.480;2023-06-10T04:57:10;9.63;;;7.22;;
41629;SDS011;27322;49.488;8.480;2023-06-10T04:59:36;8.95;;;6.63;;
41629;SDS011;27322;49.488;8.480;2023-06-10T05:02:03;9.27;;;6.72;;
41629;SDS011;27322;49.488;8.480;2023-06-10T05:04:29;9.25;;;6.70;;
41629;SDS011;27322;49.488;8.480;2023-06-10T05:06:55;9.23;;;6.68;;
41629;SDS011;27322;49.488;8.480;2023-06-10T05:09:21;10.32;;;6.75;;
41629;SDS011;27322;49.488;8.480;2023-06-10T05:11:46;9.82;;;7.32;;
41629;SDS011;27322;49.488;8.480;2023-06-10T05:14:12;10.00;;;6.72;;
41629;SDS011;27322;49.488;8.480;2023-06-10T05:16:38;10.35;;;7.05;;
41629;SDS011;27322;49.488;8.480;2023-06-10T05:19:04;9.93;;;7.07;;
41629;SDS011;27322;49.488;8.480;2023-06-10T05:21:29;10.43;;;7.30;;
41629;SDS011;27322;49.488;8.480;2023-06-10T05:23:55;10.32;;;7.10;;
41629;SDS011;27322;49.488;8.480;2023-06-10T05:26:21;11.23;;;7.20;;
41629;SDS011;27322;49.488;8.480;2023-06-10T05:28:47;9.40;;;6.78;;
41629;SDS011;27322;49.488;8.480;2023-06-10T05:31:12;8.93;;;7.03;;
41629;SDS011;27322;49.488;8.480;2023-06-10T05:33:38;10.30;;;7.07;;
41629;SDS011;27322;49.488;8.480;2023-06-10T05:36:04;8.85;;;7.20;;
41629;SDS011;27322;49.488;8.480;2023-06-10T05:38:30;9.93;;;6.60;;
41629;SDS011;27322;49.488;8.480;2023-06-10T05:40:56;8.48;;;6.90;;
41629;SDS011;27322;49.488;8.480;2023-06-10T05:43:22;9.40;;;6.80;;
41629;SDS011;27322;49.488;8.480;2023-06-10T05:45:47;8.82;;;7.10;;
41629;SDS011;27322;49.488;8.480;2023-06-10T05:48:13;8.57;;;6.78;;
41629;SDS011;27322;49.488;8.480;2023-06-10T05:50:39;9.45;;;6.85;;
41629;SDS011;27322;49.488;8.480;2023-06-10T05:53:07;8.73;;;6.72;;
41629;SDS011;27322;49.488;8.480;2023-06-10T05:55:39;10.07;;;7.07;;
41629;SDS011;27322;49.488;8.480;2023-06-10T05:58:06;10.30;;;6.68;;
41629;SDS011;27322;49.488;8.480;2023-06-10T06:00:32;8.82;;;6.80;;
41629;SDS011;27322;49.488;8.480;2023-06-10T06:02:57;9.75;;;6.93;;
41629;SDS011;27322;49.488;8.480;2023-06-10T06:05:23;9.43;;;7.00;;
41629;SDS011;27322;49.488;8.480;2023-06-10T06:07:49;9.40;;;6.72;;
41629;SDS011;27322;49.488;8.480;2023-06-10T06:10:16;7.65;;;6.47;;
41629;SDS011;27322;49.488;8.480;2023-06-10T06:12:42;9.95;;;6.40;;
41629;SDS011;27322;49.488;8.480;2023-06-10T06:15:08;10.02;;;7.35;;
41629;SDS011;27322;49.488;8.480;2023-06-10T06:17:34;8.15;;;6.47;;
41629;SDS011;27322;49.488;8.480;2023-06-10T06:20:03;9.90;;;6.80;;
41629;SDS011;27322;49.488;8.480;2023-06-10T06:22:29;10.05;;;7.25;;
41629;SDS011;27322;49.488;8.480;2023-06-10T06:24:54;10.88;;;7.63;;
41629;SDS011;27322;49.488;8.480;2023-06-10T06:27:21;12.43;;;6.97;;
41629;SDS011;27322;49.488;8.480;2023-06-10T06:29:46;10.80;;;6.85;;
41629;SDS011;27322;49.488;8.480;2023-06-10T06:32:12;11.70;;;7.00;;
41629;SDS011;27322;49.488;8.480;2023-06-10T06:34:37;14.60;;;8.00;;
41629;SDS011;27322;49.488;8.480;2023-06-10T06:37:03;12.18;;;7.53;;
41629;SDS011;27322;49.488;8.480;2023-06-10T06:39:29;10.77;;;6.97;;
41629;SDS011;27322;49.488;8.480;2023-06-10T06:41:55;11.68;;;6.40;;
41629;SDS011;27322;49.488;8.480;2023-06-10T06:44:20;9.88;;;5.82;;
41629;SDS011;27322;49.488;8.480;2023-06-10T06:46:46;7.45;;;5.18;;
41629;SDS011;27322;49.488;8.480;2023-06-10T06:49:11;7.28;;;5.30;;
41629;SDS011;27322;49.488;8.480;2023-06-10T06:51:37;8.02;;;5.30;;
41629;SDS011;27322;49.488;8.480;2023-06-10T06:54:02;6.72;;;5.05;;
41629;SDS011;27322;49.488;8.480;2023-06-10T06:56:30;6.07;;;4.47;;
41629;SDS011;27322;49.488;8.480;2023-06-10T06:58:56;6.53;;;4.80;;
41629;SDS011;27322;49.488;8.480;2023-06-10T07:01:21;8.00;;;5.00;;
41629;SDS011;27322;49.488;8.480;2023-06-10T07:03:47;7.43;;;5.20;;
41629;SDS011;27322;49.488;8.480;2023-06-10T07:06:13;6.28;;;4.90;;
41629;SDS011;27322;49.488;8.480;2023-06-10T07:08:39;5.65;;;4.40;;
41629;SDS011;27322;49.488;8.480;2023-06-10T07:11:04;6.63;;;4.07;;
41629;SDS011;27322;49.488;8.480;2023-06-10T07:13:30;5.07;;;3.50;;
41629;SDS011;27322;49.488;8.480;2023-06-10T07:15:55;5.00;;;3.45;;
41629;SDS011;27322;49.488;8.480;2023-06-10T07:18:21;5.45;;;3.25;;
41629;SDS011;27322;49.488;8.480;2023-06-10T07:20:46;4.72;;;3.20;;
41629;SDS011;27322;49.488;8.480;2023-06-10T07:23:12;4.35;;;3.15;;
41629;SDS011;27322;49.488;8.480;2023-06-10T07:25:38;4.10;;;2.97;;
41629;SDS011;27322;49.488;8.480;2023-06-10T07:28:03;4.47;;;3.08;;
41629;SDS011;27322;49.488;8.480;2023-06-10T07:30:29;4.38;;;3.00;;
41629;SDS011;27322;49.488;8.480;2023-06-10T07:32:55;5.10;;;2.83;;
41629;SDS011;27322;49.488;8.480;2023-06-10T07:35:21;4.03;;;2.70;;
41629;SDS011;27322;49.488;8.480;2023-06-10T07:37:46;4.18;;;2.75;;
41629;SDS011;27322;49.488;8.480;2023-06-10T07:40:12;4.35;;;2.78;;
41629;SDS011;27322;49.488;8.480;2023-06-10T07:42:38;4.32;;;2.63;;
41629;SDS011;27322;49.488;8.480;2023-06-10T07:45:04;5.82;;;2.92;;
41629;SDS011;27322;49.488;8.480;2023-06-10T07:47:30;4.72;;;2.75;;
41629;SDS011;27322;49.488;8.480;2023-06-10T07:49:57;4.35;;;2.92;;
41629;SDS011;27322;49.488;8.480;2023-06-10T07:52:23;4.32;;;2.75;;
41629;SDS011;27322;49.488;8.480;2023-06-10T07:54:50;4.10;;;2.80;;
41629;SDS011;27322;49.488;8.480;2023-06-10T07:57:16;4.40;;;3.08;;
41629;SDS011;27322;49.488;8.480;2023-06-10T07:59:42;4.70;;;2.70;;
41629;SDS011;27322;49.488;8.480;2023-06-10T08:02:09;4.22;;;2.97;;
41629;SDS011;27322;49.488;8.480;2023-06-10T08:04:35;4.45;;;2.60;;
41629;SDS011;27322;49.488;8.480;2023-06-10T08:07:00;4.55;;;2.80;;
41629;SDS011;27322;49.488;8.480;2023-06-10T08:09:27;5.75;;;2.97;;
41629;SDS011;27322;49.488;8.480;2023-06-10T08:11:53;4.60;;;3.05;;
41629;SDS011;27322;49.488;8.480;2023-06-10T08:14:18;4.78;;;2.92;;
41629;SDS011;27322;49.488;8.480;2023-06-10T08:16:44;4.72;;;3.05;;
41629;SDS011;27322;49.488;8.480;2023-06-10T08:19:10;7.18;;;3.05;;
41629;SDS011;27322;49.488;8.480;2023-06-10T08:21:36;5.13;;;2.97;;
41629;SDS011;27322;49.488;8.480;2023-06-10T08:24:02;4.63;;;2.92;;
41629;SDS011;27322;49.488;8.480;2023-06-10T08:26:28;4.63;;;3.30;;
41629;SDS011;27322;49.488;8.480;2023-06-10T08:28:54;4.45;;;2.72;;
41629;SDS011;27322;49.488;8.480;2023-06-10T08:31:20;4.57;;;3.20;;
41629;SDS011;27322;49.488;8.480;2023-06-10T08:33:46;5.03;;;3.00;;
41629;SDS011;27322;49.488;8.480;2023-06-10T08:36:11;6.20;;;3.38;;
41629;SDS011;27322;49.488;8.480;2023-06-10T08:38:37;5.05;;;3.50;;
41629;SDS011;27322;49.488;8.480;2023-06-10T08:41:04;4.53;;;3.10;;
41629;SDS011;27322;49.488;8.480;2023-06-10T08:43:37;4.70;;;3.28;;
41629;SDS011;27322;49.488;8.480;2023-06-10T08:46:09;3.83;;;2.72;;
41629;SDS011;27322;49.488;8.480;2023-06-10T08:48:39;4.30;;;3.10;;
41629;SDS011;27322;49.488;8.480;2023-06-10T08:51:08;4.38;;;2.75;;
41629;SDS011;27322;49.488;8.480;2023-06-10T08:53:36;4.40;;;2.95;;
41629;SDS011;27322;49.488;8.480;2023-06-10T08:56:07;5.55;;;3.20;;
41629;SDS011;27322;49.488;8.480;2023-06-10T08:58:34;6.10;;;3.40;;
41629;SDS011;27322;49.488;8.480;2023-06-10T09:01:06;5.50;;;3.22;;
41629;SDS011;27322;49.488;8.480;2023-06-10T09:03:33;5.13;;;3.40;;
41629;SDS011;27322;49.488;8.480;2023-06-10T09:06:02;7.68;;;4.50;;
41629;SDS011;27322;49.488;8.480;2023-06-10T09:08:35;8.13;;;4.55;;
41629;SDS011;27322;49.488;8.480;2023-06-10T09:11:01;6.15;;;4.50;;
41629;SDS011;27322;49.488;8.480;2023-06-10T09:13:26;7.20;;;4.50;;
41629;SDS011;27322;49.488;8.480;2023-06-10T09:15:52;6.82;;;4.43;;
41629;SDS011;27322;49.488;8.480;2023-06-10T09:18:18;6.95;;;4.57;;
41629;SDS011;27322;49.488;8.480;2023-06-10T09:20:43;5.88;;;4.65;;
41629;SDS011;27322;49.488;8.480;2023-06-10T09:23:09;5.68;;;4.40;;
41629;SDS011;27322;49.488;8.480;2023-06-10T09:25:36;5.72;;;4.35;;
41629;SDS011;27322;49.488;8.480;2023-06-10T09:28:02;9.13;;;5.22;;
41629;SDS011;27322;49.488;8.480;2023-06-10T09:30:30;6.35;;;4.70;;
41629;SDS011;27322;49.488;8.480;2023-06-10T09:33:02;7.45;;;4.70;;
41629;SDS011;27322;49.488;8.480;2023-06-10T09:35:44;6.15;;;4.68;;
41629;SDS011;27322;49.488;8.480;2023-06-10T09:38:11;6.47;;;4.63;;
41629;SDS011;27322;49.488;8.480;2023-06-10T09:40:49;7.90;;;5.03;;
41629;SDS011;27322;49.488;8.480;2023-06-10T09:43:16;6.18;;;4.68;;
41629;SDS011;27322;49.488;8.480;2023-06-10T09:45:41;7.18;;;4.80;;
41629;SDS011;27322;49.488;8.480;2023-06-10T09:48:08;7.40;;;4.68;;
41629;SDS011;27322;49.488;8.480;2023-06-10T09:50:33;6.55;;;5.03;;
41629;SDS011;27322;49.488;8.480;2023-06-10T09:53:00;5.72;;;4.03;;
41629;SDS011;27322;49.488;8.480;2023-06-10T09:55:27;6.78;;;4.55;;
41629;SDS011;27322;49.488;8.480;2023-06-10T09:57:53;7.10;;;4.40;;
41629;SDS011;27322;49.488;8.480;2023-06-10T10:00:19;7.43;;;4.55;;
41629;SDS011;27322;49.488;8.480;2023-06-10T10:02:51;5.28;;;4.10;;
41629;SDS011;27322;49.488;8.480;2023-06-10T10:05:19;6.57;;;4.40;;
41629;SDS011;27322;49.488;8.480;2023-06-10T10:07:46;5.68;;;4.30;;
41629;SDS011;27322;49.488;8.480;2023-06-10T10:10:13;6.85;;;4.60;;
41629;SDS011;27322;49.488;8.480;2023-06-10T10:12:40;10.23;;;4.68;;
41629;SDS011;27322;49.488;8.480;2023-06-10T10:15:07;6.57;;;4.63;;
41629;SDS011;27322;49.488;8.480;2023-06-10T10:17:37;5.60;;;4.20;;
41629;SDS011;27322;49.488;8.480;2023-06-10T10:20:05;6.35;;;4.53;;
41629;SDS011;27322;49.488;8.480;2023-06-10T10:22:43;6.43;;;4.53;;
41629;SDS011;27322;49.488;8.480;2023-06-10T10:25:13;7.07;;;4.88;;
41629;SDS011;27322;49.488;8.480;2023-06-10T10:27:48;7.50;;;4.40;;
41629;SDS011;27322;49.488;8.480;2023-06-10T10:30:20;6.72;;;4.00;;
41629;SDS011;27322;49.488;8.480;2023-06-10T10:33:05;12.07;;;9.57;;
41629;SDS011;27322;49.488;8.480;2023-06-10T10:35:34;8.07;;;6.68;;
41629;SDS011;27322;49.488;8.480;2023-06-10T10:38:01;5.72;;;4.30;;
41629;SDS011;27322;49.488;8.480;2023-06-10T10:40:28;7.60;;;3.70;;
41629;SDS011;27322;49.488;8.480;2023-06-10T10:42:54;4.97;;;2.92;;
41629;SDS011;27322;49.488;8.480;2023-06-10T10:45:21;6.88;;;2.85;;
41629;SDS011;27322;49.488;8.480;2023-06-10T10:47:48;4.18;;;2.60;;
41629;SDS011;27322;49.488;8.480;2023-06-10T10:50:18;5.45;;;2.78;;
41629;SDS011;27322;49.488;8.480;2023-06-10T10:55:22;8.25;;;2.88;;
41629;SDS011;27322;49.488;8.480;2023-06-10T11:05:31;4.53;;;2.70;;
41629;SDS011;27322;49.488;8.480;2023-06-10T11:10:33;4.32;;;2.60;;
41629;SDS011;27322;49.488;8.480;2023-06-10T11:13:02;4.55;;;2.80;;
41629;SDS011;27322;49.488;8.480;2023-06-10T11:15:32;4.25;;;2.33;;
41629;SDS011;27322;49.488;8.480;2023-06-10T11:18:08;3.80;;;2.47;;
41629;SDS011;27322;49.488;8.480;2023-06-10T11:23:30;5.10;;;2.58;;
41629;SDS011;27322;49.488;8.480;2023-06-10T11:28:41;4.55;;;2.88;;
41629;SDS011;27322;49.488;8.480;2023-06-10T11:31:26;4.60;;;3.10;;
41629;SDS011;27322;49.488;8.480;2023-06-10T11:33:57;3.72;;;2.60;;
41629;SDS011;27322;49.488;8.480;2023-06-10T11:36:33;4.07;;;2.80;;
41629;SDS011;27322;49.488;8.480;2023-06-10T11:39:04;4.00;;;2.60;;
41629;SDS011;27322;49.488;8.480;2023-06-10T11:41:31;4.43;;;2.63;;
41629;SDS011;27322;49.488;8.480;2023-06-10T11:44:02;5.05;;;2.58;;
41629;SDS011;27322;49.488;8.480;2023-06-10T11:46:29;4.13;;;2.55;;
41629;SDS011;27322;49.488;8.480;2023-06-10T11:48:55;4.38;;;2.90;;
41629;SDS011;27322;49.488;8.480;2023-06-10T11:51:25;5.22;;;2.70;;
41629;SDS011;27322;49.488;8.480;2023-06-10T11:53:51;3.80;;;2.53;;
41629;SDS011;27322;49.488;8.480;2023-06-10T11:56:21;4.50;;;2.50;;
41629;SDS011;27322;49.488;8.480;2023-06-10T11:59:09;3.88;;;2.55;;
41629;SDS011;27322;49.488;8.480;2023-06-10T12:01:35;6.40;;;2.80;;
41629;SDS011;27322;49.488;8.480;2023-06-10T12:06:40;4.20;;;2.45;;
41629;SDS011;27322;49.488;8.480;2023-06-10T12:11:41;4.53;;;2.63;;
41629;SDS011;27322;49.488;8.480;2023-06-10T12:14:08;4.10;;;2.67;;
41629;SDS011;27322;49.488;8.480;2023-06-10T12:16:34;4.43;;;2.60;;
41629;SDS011;27322;49.488;8.480;2023-06-10T12:19:03;5.05;;;2.53;;
41629;SDS011;27322;49.488;8.480;2023-06-10T12:21:30;5.53;;;2.75;;
41629;SDS011;27322;49.488;8.480;2023-06-10T12:24:00;3.88;;;2.53;;
41629;SDS011;27322;49.488;8.480;2023-06-10T12:26:42;4.50;;;2.60;;
41629;SDS011;27322;49.488;8.480;2023-06-10T12:29:16;5.10;;;2.50;;
41629;SDS011;27322;49.488;8.480;2023-06-10T12:34:19;4.20;;;2.50;;
41629;SDS011;27322;49.488;8.480;2023-06-10T12:36:51;4.25;;;2.78;;
41629;SDS011;27322;49.488;8.480;2023-06-10T12:39:17;5.10;;;2.60;;
41629;SDS011;27322;49.488;8.480;2023-06-10T12:41:49;3.75;;;2.60;;
41629;SDS011;27322;49.488;8.480;2023-06-10T12:44:16;3.53;;;2.38;;
41629;SDS011;27322;49.488;8.480;2023-06-10T12:46:41;4.43;;;2.75;;
41629;SDS011;27322;49.488;8.480;2023-06-10T12:49:07;3.90;;;2.70;;
41629;SDS011;27322;49.488;8.480;2023-06-10T12:51:33;5.35;;;2.53;;
41629;SDS011;27322;49.488;8.480;2023-06-10T12:53:59;6.13;;;2.78;;
41629;SDS011;27322;49.488;8.480;2023-06-10T12:56:25;5.07;;;2.53;;
41629;SDS011;27322;49.488;8.480;2023-06-10T12:58:51;3.67;;;2.30;;
41629;SDS011;27322;49.488;8.480;2023-06-10T13:01:16;5.03;;;2.45;;
41629;SDS011;27322;49.488;8.480;2023-06-10T13:03:42;3.40;;;2.42;;
41629;SDS011;27322;49.488;8.480;2023-06-10T13:06:07;3.95;;;2.60;;
41629;SDS011;27322;49.488;8.480;2023-06-10T13:08:33;4.43;;;2.30;;
41629;SDS011;27322;49.488;8.480;2023-06-10T13:10:58;4.15;;;2.67;;
41629;SDS011;27322;49.488;8.480;2023-06-10T13:13:24;4.47;;;2.78;;
41629;SDS011;27322;49.488;8.480;2023-06-10T13:15:50;4.50;;;2.53;;
41629;SDS011;27322;49.488;8.480;2023-06-10T13:18:16;3.88;;;2.55;;
41629;SDS011;27322;49.488;8.480;2023-06-10T13:20:45;4.38;;;2.47;;
41629;SDS011;27322;49.488;8.480;2023-06-10T13:23:10;4.10;;;2.63;;
41629;SDS011;27322;49.488;8.480;2023-06-10T13:25:36;5.80;;;2.88;;
41629;SDS011;27322;49.488;8.480;2023-06-10T13:28:01;4.32;;;2.42;;
41629;SDS011;27322;49.488;8.480;2023-06-10T13:30:27;5.10;;;2.60;;
41629;SDS011;27322;49.488;8.480;2023-06-10T13:32:53;7.57;;;2.90;;
41629;SDS011;27322;49.488;8.480;2023-06-10T13:35:18;4.80;;;2.60;;
41629;SDS011;27322;49.488;8.480;2023-06-10T13:37:44;4.65;;;2.25;;
41629;SDS011;27322;49.488;8.480;2023-06-10T13:40:10;5.25;;;2.90;;
41629;SDS011;27322;49.488;8.480;2023-06-10T13:42:36;3.75;;;2.65;;
41629;SDS011;27322;49.488;8.480;2023-06-10T13:45:03;3.78;;;2.50;;
41629;SDS011;27322;49.488;8.480;2023-06-10T13:47:29;4.43;;;2.85;;
41629;SDS011;27322;49.488;8.480;2023-06-10T13:49:55;4.30;;;2.88;;
41629;SDS011;27322;49.488;8.480;2023-06-10T13:52:20;5.15;;;2.83;;
41629;SDS011;27322;49.488;8.480;2023-06-10T13:54:46;3.50;;;2.45;;
41629;SDS011;27322;49.488;8.480;2023-06-10T13:57:11;5.40;;;2.60;;
41629;SDS011;27322;49.488;8.480;2023-06-10T13:59:37;4.57;;;2.75;;
41629;SDS011;27322;49.488;8.480;2023-06-10T14:02:02;4.65;;;2.40;;
41629;SDS011;27322;49.488;8.480;2023-06-10T14:04:28;5.47;;;2.78;;
41629;SDS011;27322;49.488;8.480;2023-06-10T14:06:54;3.95;;;2.58;;
41629;SDS011;27322;49.488;8.480;2023-06-10T14:09:20;4.18;;;2.58;;
41629;SDS011;27322;49.488;8.480;2023-06-10T14:11:45;4.82;;;2.42;;
41629;SDS011;27322;49.488;8.480;2023-06-10T14:14:12;5.82;;;2.78;;
41629;SDS011;27322;49.488;8.480;2023-06-10T14:16:39;6.25;;;2.50;;
41629;SDS011;27322;49.488;8.480;2023-06-10T14:19:04;3.60;;;2.50;;
41629;SDS011;27322;49.488;8.480;2023-06-10T14:21:30;4.88;;;2.90;;
41629;SDS011;27322;49.488;8.480;2023-06-10T14:23:56;5.57;;;2.30;;
41629;SDS011;27322;49.488;8.480;2023-06-10T14:26:21;3.55;;;2.25;;
41629;SDS011;27322;49.488;8.480;2023-06-10T14:28:50;5.13;;;2.40;;
41629;SDS011;27322;49.488;8.480;2023-06-10T14:31:16;6.15;;;2.40;;
41629;SDS011;27322;49.488;8.480;2023-06-10T14:33:41;3.45;;;2.30;;
41629;SDS011;27322;49.488;8.480;2023-06-10T14:36:08;3.63;;;2.42;;
41629;SDS011;27322;49.488;8.480;2023-06-10T14:38:34;4.95;;;2.40;;
41629;SDS011;27322;49.488;8.480;2023-06-10T14:41:00;4.00;;;2.60;;
41629;SDS011;27322;49.488;8.480;2023-06-10T14:43:26;3.65;;;2.30;;
41629;SDS011;27322;49.488;8.480;2023-06-10T14:45:51;3.25;;;2.20;;
41629;SDS011;27322;49.488;8.480;2023-06-10T14:48:17;3.78;;;2.67;;
41629;SDS011;27322;49.488;8.480;2023-06-10T14:50:43;4.20;;;2.60;;
41629;SDS011;27322;49.488;8.480;2023-06-10T14:53:11;3.85;;;2.60;;
41629;SDS011;27322;49.488;8.480;2023-06-10T14:55:37;4.00;;;2.15;;
41629;SDS011;27322;49.488;8.480;2023-06-10T14:58:02;4.00;;;2.55;;
41629;SDS011;27322;49.488;8.480;2023-06-10T15:00:28;4.10;;;2.55;;
41629;SDS011;27322;49.488;8.480;2023-06-10T15:02:53;4.32;;;2.22;;
41629;SDS011;27322;49.488;8.480;2023-06-10T15:05:20;4.03;;;2.50;;
41629;SDS011;27322;49.488;8.480;2023-06-10T15:07:46;2.67;;;1.90;;
41629;SDS011;27322;49.488;8.480;2023-06-10T15:10:12;4.50;;;2.40;;
41629;SDS011;27322;49.488;8.480;2023-06-10T15:12:38;4.28;;;2.28;;
41629;SDS011;27322;49.488;8.480;2023-06-10T15:15:04;3.63;;;2.40;;